Atlantic Tramp — V7SM5 — position and weather

sailwx.info

Track history (hours):
 
Tides and Currents Weather Stations Pressure Air Temp Water Temp Dewpoint Dewpoint Depression Visibility Wind Speed Wind Dir Waves Ship Positions

Atlantic Tramp

Last reported at 2017-Mar-20 14:32 UTC. Time now 2017-Mar-30 22:46 UTC.
Position N 37°47' E 002°57'.
Warning: this ship's position is 10 days out of date.

Length 180 m; draft 7.7 m.

Type: Cargo ship. MMSI: 538003682.

Date/timePositionNaut miles runAvg speedWind from/ knotsBaromVisibWave heightAir tempDewpointWater temp
2017-Mar-20 14:32N 37°47' E 002°57'5814.6
2017-Mar-20 10:34N 37°28' E 001°47'3114.6
2017-Mar-20 08:25N 37°18' E 001°10'1714.1
2017-Mar-20 07:12N 37°13' E 000°49'1414.2
2017-Mar-20 06:14N 37°08' E 000°33'5514.4
2017-Mar-20 02:25N 36°50' W 000°32'1214.2
2017-Mar-20 01:33N 36°46' W 000°46'21814.5
2017-Mar-19 10:28N 36°00' W 005°12'1314.9
2017-Mar-19 09:33N 35°58' W 005°28'1515.2
2017-Mar-19 08:33N 35°54' W 005°46'13913.8
2017-Mar-18 22:28N 36°24' W 008°34'1714.4
2017-Mar-18 21:17N 36°27' W 008°55'4013.6
2017-Mar-18 18:21N 36°52' W 009°34'1114.4
2017-Mar-18 17:33N 37°03' W 009°37'1414.4
2017-Mar-18 16:33N 37°17' W 009°41'1414.4
2017-Mar-18 15:33N 37°31' W 009°46'1414.3
2017-Mar-18 14:33N 37°45' W 009°49'1414.1
2017-Mar-18 13:33N 37°59' W 009°53'1414.3
2017-Mar-18 12:33N 38°13' W 009°57'1514.6
2017-Mar-18 11:33N 38°27' W 010°02'1414.4
2017-Mar-18 10:33N 38°41' W 010°06'1514.6
2017-Mar-18 09:33N 38°56' W 010°06'1514.6
2017-Mar-18 08:33N 39°11' W 010°06'1514.4
2017-Mar-18 07:31N 39°25' W 010°06'1414.4
2017-Mar-18 06:33N 39°39' W 010°06'29910.5
2017-Mar-17 02:09N 43°40' W 006°10'10 0.5
2017-Mar-16 07:10N 43°36' W 005°57'3 5.6
2017-Mar-16 06:33N 43°38' W 006°01'1110.7
2017-Mar-16 05:32N 43°42' W 006°15'61611.9
2017-Mar-14 01:33N 42°48' W 020°18'4513.1
2017-Mar-13 22:08N 42°42' W 021°18'1413.3
2017-Mar-13 21:07N 42°40' W 021°37'813.4
2017-Mar-13 20:33N 42°39' W 021°47'1813.2
2017-Mar-13 19:13N 42°36' W 022°11'2513.5
2017-Mar-13 17:21N 42°33' W 022°45'1313.7
2017-Mar-13 16:24N 42°31' W 023°02'1313.8
2017-Mar-13 15:26N 42°30' W 023°20'1314.0
2017-Mar-13 14:30N 42°28' W 023°38'1913.9
2017-Mar-13 13:06N 42°25' W 024°04'813.9
2017-Mar-13 12:30N 42°24' W 024°15'1313.9
2017-Mar-13 11:33N 42°22' W 024°33'1413.3
2017-Mar-13 10:30N 42°20' W 024°51'2613.2
2017-Mar-13 08:31N 42°17' W 025°27'4013.4
2017-Mar-13 05:31N 42°12' W 026°20'1313.3
2017-Mar-13 04:33N 42°10' W 026°38'1313.0
2017-Mar-13 03:33N 42°08' W 026°55'1312.8
2017-Mar-13 02:32N 42°06' W 027°12'  
Track history (hours):
 
Tides and Currents Weather Stations Pressure Air Temp Water Temp Dewpoint Dewpoint Depression Visibility Wind Speed Wind Dir Waves Ship Positions

Atlantic Tramp

Last reported at 2017-Mar-20 14:32 UTC. Time now 2017-Mar-30 22:46 UTC.
Position N 37°47' E 002°57'.
Warning: this ship's position is 10 days out of date.

Length 180 m; draft 7.7 m.

Type: Cargo ship. MMSI: 538003682.

Date/timePositionNaut miles runAvg speedWind from/ knotsBaromVisibWave heightAir tempDewpointWater temp
2017-Mar-20 14:32N 37°47' E 002°57'5814.6
2017-Mar-20 10:34N 37°28' E 001°47'3114.6
2017-Mar-20 08:25N 37°18' E 001°10'1714.1
2017-Mar-20 07:12N 37°13' E 000°49'1414.2
2017-Mar-20 06:14N 37°08' E 000°33'5514.4
2017-Mar-20 02:25N 36°50' W 000°32'1214.2
2017-Mar-20 01:33N 36°46' W 000°46'21814.5
2017-Mar-19 10:28N 36°00' W 005°12'1314.9
2017-Mar-19 09:33N 35°58' W 005°28'1515.2
2017-Mar-19 08:33N 35°54' W 005°46'13913.8
2017-Mar-18 22:28N 36°24' W 008°34'1714.4
2017-Mar-18 21:17N 36°27' W 008°55'4013.6
2017-Mar-18 18:21N 36°52' W 009°34'1114.4
2017-Mar-18 17:33N 37°03' W 009°37'1414.4
2017-Mar-18 16:33N 37°17' W 009°41'1414.4
2017-Mar-18 15:33N 37°31' W 009°46'1414.3
2017-Mar-18 14:33N 37°45' W 009°49'1414.1
2017-Mar-18 13:33N 37°59' W 009°53'1414.3
2017-Mar-18 12:33N 38°13' W 009°57'1514.6
2017-Mar-18 11:33N 38°27' W 010°02'1414.4
2017-Mar-18 10:33N 38°41' W 010°06'1514.6
2017-Mar-18 09:33N 38°56' W 010°06'1514.6
2017-Mar-18 08:33N 39°11' W 010°06'1514.4
2017-Mar-18 07:31N 39°25' W 010°06'1414.4
2017-Mar-18 06:33N 39°39' W 010°06'29910.5
2017-Mar-17 02:09N 43°40' W 006°10'10 0.5
2017-Mar-16 07:10N 43°36' W 005°57'3 5.6
2017-Mar-16 06:33N 43°38' W 006°01'1110.7
2017-Mar-16 05:32N 43°42' W 006°15'61611.9
2017-Mar-14 01:33N 42°48' W 020°18'4513.1
2017-Mar-13 22:08N 42°42' W 021°18'1413.3
2017-Mar-13 21:07N 42°40' W 021°37'813.4
2017-Mar-13 20:33N 42°39' W 021°47'1813.2
2017-Mar-13 19:13N 42°36' W 022°11'2513.5
2017-Mar-13 17:21N 42°33' W 022°45'1313.7
2017-Mar-13 16:24N 42°31' W 023°02'1313.8
2017-Mar-13 15:26N 42°30' W 023°20'1314.0
2017-Mar-13 14:30N 42°28' W 023°38'1913.9
2017-Mar-13 13:06N 42°25' W 024°04'813.9
2017-Mar-13 12:30N 42°24' W 024°15'1313.9
2017-Mar-13 11:33N 42°22' W 024°33'1413.3
2017-Mar-13 10:30N 42°20' W 024°51'2613.2
2017-Mar-13 08:31N 42°17' W 025°27'4013.4
2017-Mar-13 05:31N 42°12' W 026°20'1313.3
2017-Mar-13 04:33N 42°10' W 026°38'1313.0
2017-Mar-13 03:33N 42°08' W 026°55'1312.8
2017-Mar-13 02:32N 42°06' W 027°12'  

Dump ship's entire track history